createdAt,value
2022-08-29T00:01:44.429Z,98511.75
2022-08-29T00:04:14.888Z,98504.72
2022-08-29T00:06:46.436Z,98503.72
2022-08-29T00:09:16.058Z,98501.56
2022-08-29T00:11:46.560Z,98504.19
2022-08-29T00:14:23.501Z,98504.97
2022-08-29T00:16:53.710Z,98501.75
2022-08-29T00:19:24.425Z,98514.66
2022-08-29T00:21:54.176Z,98515.44
2022-08-29T00:24:23.938Z,98509.19
2022-08-29T00:26:54.066Z,98507.44
2022-08-29T00:29:26.297Z,98511.59
2022-08-29T00:31:56.080Z,98512.97
2022-08-29T00:34:25.766Z,98513.09
2022-08-29T00:36:55.348Z,98515.44
2022-08-29T00:39:25.004Z,98512.25
2022-08-29T00:41:55.847Z,98515.41
2022-08-29T00:44:28.768Z,98501.50
2022-08-29T00:47:01.699Z,98506.78
2022-08-29T00:49:36.903Z,98501.50
2022-08-29T00:52:13.957Z,98509.38
2022-08-29T00:54:46.298Z,98513.88
2022-08-29T00:57:17.828Z,98519.41
2022-08-29T00:59:51.707Z,98516.09
2022-08-29T01:02:21.662Z,98514.06
2022-08-29T01:04:51.516Z,98518.03
2022-08-29T01:07:21.208Z,98520.06
2022-08-29T01:09:52.065Z,98519.78
2022-08-29T01:12:20.750Z,98524.94
2022-08-29T01:14:55.392Z,98522.59
2022-08-29T01:17:30.630Z,98529.31
2022-08-29T01:20:05.635Z,98528.91
2022-08-29T01:22:50.994Z,98532.06
2022-08-29T01:25:25.896Z,98528.22
2022-08-29T01:28:00.125Z,98534.53
2022-08-29T01:30:29.793Z,98532.19
2022-08-29T01:33:00.987Z,98536.84
2022-08-29T01:35:31.929Z,98540.13
2022-08-29T01:38:03.477Z,98533.84
2022-08-29T01:40:38.493Z,98534.97
2022-08-29T01:43:08.746Z,98536.66
2022-08-29T01:45:38.495Z,98535.44
2022-08-29T01:48:08.589Z,98537.81
2022-08-29T01:50:38.369Z,98532.38
2022-08-29T01:53:08.072Z,98533.59
2022-08-29T01:55:40.953Z,98528.84
2022-08-29T01:58:10.735Z,98528.00
2022-08-29T02:00:40.698Z,98531.22
2022-08-29T02:03:10.509Z,98531.53
2022-08-29T02:05:40.247Z,98533.31
2022-08-29T02:08:10.013Z,98535.72
2022-08-29T02:10:42.664Z,98535.28
2022-08-29T02:13:13.855Z,98533.66
2022-08-29T02:15:43.499Z,98542.38
2022-08-29T02:18:13.517Z,98536.56
2022-08-29T02:20:43.378Z,98540.91
2022-08-29T02:23:29.812Z,98535.09
2022-08-29T02:26:03.080Z,98541.81
2022-08-29T02:28:32.797Z,98543.94
2022-08-29T02:31:02.757Z,98542.44
2022-08-29T02:33:32.643Z,98545.84
2022-08-29T02:36:02.432Z,98538.16
2022-08-29T02:38:32.238Z,98532.31
2022-08-29T02:41:05.312Z,98529.19
2022-08-29T02:43:35.060Z,98527.31
2022-08-29T02:46:05.496Z,98531.63
2022-08-29T02:48:35.260Z,98525.59
2022-08-29T02:51:06.018Z,98525.47
2022-08-29T02:53:35.671Z,98527.69
2022-08-29T02:56:08.396Z,98526.09
2022-08-29T02:58:44.440Z,98528.03
2022-08-29T03:01:14.679Z,98530.00
2022-08-29T03:03:44.400Z,98532.78
2022-08-29T03:06:14.389Z,98524.59
2022-08-29T03:08:44.494Z,98521.34
2022-08-29T03:11:17.383Z,98531.31
2022-08-29T03:13:47.763Z,98529.28
2022-08-29T03:16:17.581Z,98528.91
2022-08-29T03:18:47.271Z,98528.53
2022-08-29T03:21:19.830Z,98526.25
2022-08-29T03:23:50.408Z,98528.72
2022-08-29T03:26:23.307Z,98522.75
2022-08-29T03:28:53.020Z,98523.53
2022-08-29T03:31:22.880Z,98516.50
2022-08-29T03:33:52.724Z,98520.78
2022-08-29T03:36:22.461Z,98518.25
2022-08-29T03:38:52.148Z,98523.88
2022-08-29T03:41:31.239Z,98525.03
2022-08-29T03:44:01.214Z,98530.44
2022-08-29T03:46:31.257Z,98539.72
2022-08-29T03:49:00.984Z,98540.63
2022-08-29T03:51:31.755Z,98540.28
2022-08-29T03:54:01.582Z,98535.09
2022-08-29T03:56:33.878Z,98532.78
2022-08-29T03:59:03.790Z,98534.31
2022-08-29T04:01:33.499Z,98534.22
2022-08-29T04:04:03.334Z,98544.47
2022-08-29T04:06:33.890Z,98534.03
2022-08-29T04:09:04.003Z,98537.78
2022-08-29T04:11:36.527Z,98540.63
2022-08-29T04:14:06.156Z,98551.31
2022-08-29T04:16:35.902Z,98543.78
2022-08-29T04:19:05.659Z,98545.41
2022-08-29T04:21:38.560Z,98540.34
2022-08-29T04:24:08.814Z,98537.53
2022-08-29T04:26:42.208Z,98543.97
2022-08-29T04:29:14.739Z,98548.66
2022-08-29T04:31:45.819Z,98548.75
2022-08-29T04:34:16.750Z,98554.19
2022-08-29T04:36:47.415Z,98558.19
2022-08-29T04:39:18.171Z,98556.84
2022-08-29T04:41:50.589Z,98555.00
2022-08-29T04:44:20.331Z,98560.81
2022-08-29T04:46:50.104Z,98560.47
2022-08-29T04:49:21.784Z,98562.41
2022-08-29T04:51:51.692Z,98563.53
2022-08-29T04:54:21.407Z,98565.56
2022-08-29T04:56:53.713Z,98569.81
2022-08-29T04:59:27.439Z,98573.44
2022-08-29T05:01:57.722Z,98571.50
2022-08-29T05:04:28.107Z,98565.94
2022-08-29T05:06:57.852Z,98563.53
2022-08-29T05:09:27.535Z,98567.53
2022-08-29T05:11:59.854Z,98567.66
2022-08-29T05:14:29.585Z,98571.81
2022-08-29T05:16:59.290Z,98569.06
2022-08-29T05:19:29.000Z,98576.09
2022-08-29T05:22:04.290Z,98575.28
2022-08-29T05:24:37.406Z,98568.19
2022-08-29T05:27:14.615Z,98576.78
2022-08-29T05:29:45.792Z,98573.66
2022-08-29T05:32:17.657Z,98582.63
2022-08-29T05:34:48.576Z,98586.22
2022-08-29T05:37:21.856Z,98589.28
2022-08-29T05:39:52.892Z,98584.63
2022-08-29T05:42:27.530Z,98588.63
2022-08-29T05:44:57.273Z,98589.84
2022-08-29T05:47:26.987Z,98587.13
2022-08-29T05:49:56.619Z,98592.56
2022-08-29T05:52:26.666Z,98592.97
2022-08-29T05:54:56.837Z,98590.44
2022-08-29T05:57:29.220Z,98589.34
2022-08-29T05:59:58.863Z,98586.66
2022-08-29T06:02:28.723Z,98599.25
2022-08-29T06:04:59.048Z,98601.09
2022-08-29T06:07:28.714Z,98611.44
2022-08-29T06:10:03.624Z,98599.75
2022-08-29T06:12:36.822Z,98601.03
2022-08-29T06:15:07.119Z,98604.56
2022-08-29T06:17:38.898Z,98605.66
2022-08-29T06:20:11.392Z,98607.88
2022-08-29T06:22:42.016Z,98609.38
2022-08-29T06:25:37.402Z,98611.19
2022-08-29T06:28:05.136Z,98617.31
2022-08-29T06:30:36.258Z,98617.38
2022-08-29T06:33:06.038Z,98616.50
2022-08-29T06:35:35.772Z,98619.75
2022-08-29T06:38:05.477Z,98614.91
2022-08-29T06:40:35.292Z,98620.94
2022-08-29T06:43:07.776Z,98621.16
2022-08-29T06:45:43.838Z,98625.84
2022-08-29T06:48:14.008Z,98629.19
2022-08-29T06:50:45.781Z,98624.78
2022-08-29T06:53:27.422Z,98632.59
2022-08-29T06:56:11.339Z,98629.31
2022-08-29T06:58:44.638Z,98633.38
2022-08-29T07:01:16.810Z,98630.38
2022-08-29T07:03:46.606Z,98631.75
2022-08-29T07:06:16.573Z,98632.69
2022-08-29T07:08:55.055Z,98632.34
2022-08-29T07:11:25.343Z,98638.13
2022-08-29T07:14:00.201Z,98640.00
2022-08-29T07:16:31.068Z,98633.84
2022-08-29T07:19:00.872Z,98635.13
2022-08-29T07:21:30.694Z,98635.22
2022-08-29T07:24:02.061Z,98636.31
2022-08-29T07:26:33.879Z,98638.47
2022-08-29T07:29:09.742Z,98641.44
2022-08-29T07:31:39.653Z,98634.28
2022-08-29T07:34:09.457Z,98634.78
2022-08-29T07:36:40.079Z,98639.59
2022-08-29T07:39:11.879Z,98644.41
2022-08-29T07:41:42.594Z,98641.44
2022-08-29T07:44:15.835Z,98636.44
2022-08-29T07:46:46.462Z,98640.44
2022-08-29T07:49:16.229Z,98647.81
2022-08-29T07:51:45.881Z,98643.78
2022-08-29T07:54:17.146Z,98642.97
2022-08-29T07:56:48.118Z,98647.75
2022-08-29T07:59:23.226Z,98648.44
2022-08-29T08:01:53.776Z,98647.63
2022-08-29T08:04:24.301Z,98644.41
2022-08-29T08:06:54.035Z,98642.09
2022-08-29T08:09:23.844Z,98646.84
2022-08-29T08:11:53.613Z,98639.41
2022-08-29T08:14:32.263Z,98639.91
2022-08-29T08:17:04.832Z,98644.38
2022-08-29T08:19:34.686Z,98651.06
2022-08-29T08:22:04.326Z,98648.94
2022-08-29T08:24:34.180Z,98649.31
2022-08-29T08:27:03.941Z,98654.41
2022-08-29T08:29:36.224Z,98657.47
2022-08-29T08:32:06.471Z,98650.34
2022-08-29T08:34:36.136Z,98654.94
2022-08-29T08:37:09.975Z,98654.50
2022-08-29T08:39:40.439Z,98650.72
2022-08-29T08:42:20.666Z,98648.34
2022-08-29T08:45:07.910Z,98659.47
2022-08-29T08:47:42.633Z,98655.75
2022-08-29T08:50:19.990Z,98644.50
2022-08-29T08:52:55.805Z,98650.94
2022-08-29T08:55:36.292Z,98646.34
2022-08-29T08:58:18.470Z,98645.09
2022-08-29T09:01:02.643Z,98644.03
2022-08-29T09:04:14.148Z,98646.53
2022-08-29T09:07:10.969Z,98643.53
2022-08-29T09:09:57.074Z,98650.47
2022-08-29T09:12:36.295Z,98640.94
2022-08-29T09:15:13.940Z,98647.69
2022-08-29T09:17:50.892Z,98649.59
2022-08-29T09:20:22.945Z,98653.34
2022-08-29T09:23:01.926Z,98647.31
2022-08-29T09:25:36.342Z,98646.31
2022-08-29T09:28:09.176Z,98646.03
2022-08-29T09:30:41.545Z,98645.75
2022-08-29T09:33:15.884Z,98650.25
2022-08-29T09:35:48.768Z,98643.13
2022-08-29T09:38:24.154Z,98641.25
2022-08-29T09:40:58.979Z,98647.94
2022-08-29T09:43:31.841Z,98639.69
2022-08-29T09:46:26.442Z,98640.63
2022-08-29T09:49:16.573Z,98638.47
2022-08-29T09:51:49.511Z,98644.69
2022-08-29T09:54:27.792Z,98643.44
2022-08-29T09:57:01.842Z,98640.16
2022-08-29T09:59:35.415Z,98633.03
2022-08-29T10:02:18.525Z,98633.09
2022-08-29T10:04:54.541Z,98628.25
2022-08-29T10:07:28.213Z,98628.13
2022-08-29T10:10:05.285Z,98629.34
2022-08-29T10:12:50.366Z,98632.47
2022-08-29T10:15:47.032Z,98624.97
2022-08-29T10:18:28.839Z,98627.13
2022-08-29T10:21:14.914Z,98625.47
2022-08-29T10:23:58.392Z,98622.34
2022-08-29T10:26:35.822Z,98625.94
2022-08-29T10:29:15.142Z,98628.38
2022-08-29T10:31:51.665Z,98623.97
2022-08-29T10:34:42.030Z,98628.22
2022-08-29T10:37:26.657Z,98623.78
2022-08-29T10:40:03.575Z,98616.88
2022-08-29T10:42:37.121Z,98619.84
2022-08-29T10:45:18.378Z,98622.19
2022-08-29T10:47:55.099Z,98610.13
2022-08-29T10:50:44.107Z,98619.56
2022-08-29T10:53:22.132Z,98610.19
2022-08-29T10:55:57.145Z,98613.22
2022-08-29T10:58:42.393Z,98613.03
2022-08-29T11:01:17.556Z,98609.47
2022-08-29T11:03:53.450Z,98608.09
2022-08-29T11:06:27.879Z,98602.34
2022-08-29T11:09:09.979Z,98605.09
2022-08-29T11:11:43.155Z,98608.41
2022-08-29T11:14:23.423Z,98599.16
2022-08-29T11:16:55.679Z,98606.13
2022-08-29T11:19:30.280Z,98593.66
2022-08-29T11:22:05.700Z,98590.56
2022-08-29T11:24:46.895Z,98584.22
2022-08-29T11:27:26.999Z,98582.72
2022-08-29T11:30:05.000Z,98587.00
2022-08-29T11:32:47.602Z,98583.13
2022-08-29T11:35:23.391Z,98586.69
2022-08-29T11:38:11.970Z,98585.44
2022-08-29T11:44:10.590Z,98578.78
2022-08-29T11:46:44.214Z,98582.72
2022-08-29T11:49:37.192Z,98580.22
2022-08-29T11:52:26.864Z,98574.34
2022-08-29T11:55:28.745Z,98574.78
2022-08-29T11:58:09.817Z,98576.63
2022-08-29T12:00:47.976Z,98573.22
2022-08-29T12:03:46.373Z,98562.75
2022-08-29T12:06:35.126Z,98565.38
2022-08-29T12:09:21.698Z,98551.31
2022-08-29T12:12:20.963Z,98560.41
2022-08-29T12:14:54.679Z,98555.53
2022-08-29T12:18:04.218Z,98557.72
2022-08-29T12:20:45.887Z,98555.59
2022-08-29T12:23:22.804Z,98557.72
2022-08-29T12:26:15.840Z,98558.00
2022-08-29T12:28:50.488Z,98552.69
2022-08-29T12:32:17.811Z,98549.16
2022-08-29T12:35:00.910Z,98544.72
2022-08-29T12:37:40.941Z,98544.72
2022-08-29T12:40:25.239Z,98547.13
2022-08-29T12:43:16.097Z,98546.06
2022-08-29T12:45:48.944Z,98535.47
2022-08-29T12:48:24.411Z,98542.81
2022-08-29T12:50:56.730Z,98525.22
2022-08-29T12:53:29.966Z,98528.56
2022-08-29T12:56:02.725Z,98534.97
2022-08-29T12:58:40.527Z,98523.13
2022-08-29T13:01:22.801Z,98526.16
2022-08-29T13:04:00.504Z,98518.03
2022-08-29T13:06:33.820Z,98514.22
2022-08-29T13:09:05.027Z,98510.00
2022-08-29T13:11:36.143Z,98510.78
2022-08-29T13:14:11.911Z,98518.16
2022-08-29T13:16:42.695Z,98512.50
2022-08-29T13:19:21.514Z,98509.28
2022-08-29T13:21:53.831Z,98498.34
2022-08-29T13:24:24.066Z,98503.34
2022-08-29T13:27:05.756Z,98495.53
2022-08-29T13:29:39.769Z,98498.16
2022-08-29T13:32:24.480Z,98500.56
2022-08-29T13:35:09.932Z,98493.94
2022-08-29T13:37:44.494Z,98493.09
2022-08-29T13:40:37.274Z,98491.63
2022-08-29T13:43:08.851Z,98497.69
2022-08-29T13:45:39.116Z,98496.03
2022-08-29T13:48:20.529Z,98488.81
2022-08-29T13:50:50.226Z,98489.50
2022-08-29T13:53:22.513Z,98487.78
2022-08-29T13:55:52.131Z,98498.03
2022-08-29T13:58:24.244Z,98485.53
2022-08-29T14:00:53.861Z,98488.94
2022-08-29T14:03:23.920Z,98492.16
2022-08-29T14:05:56.578Z,98475.50
2022-08-29T14:08:30.461Z,98481.69
2022-08-29T14:11:00.079Z,98477.53
2022-08-29T14:13:29.811Z,98481.41
2022-08-29T14:16:00.283Z,98477.53
2022-08-29T14:18:32.673Z,98475.13
2022-08-29T14:21:02.825Z,98472.41
2022-08-29T14:23:35.600Z,98465.72
2022-08-29T14:26:05.232Z,98473.44
2022-08-29T14:28:39.404Z,98472.19
2022-08-29T14:31:10.239Z,98469.75
2022-08-29T14:33:39.970Z,98467.72
2022-08-29T14:36:10.210Z,98464.13
2022-08-29T14:38:42.423Z,98460.28
2022-08-29T14:41:12.041Z,98455.59
2022-08-29T14:43:41.671Z,98453.03
2022-08-29T14:46:11.558Z,98447.88
2022-08-29T14:48:41.327Z,98453.66
2022-08-29T14:51:10.977Z,98448.66
2022-08-29T14:53:54.167Z,98450.69
2022-08-29T14:56:47.587Z,98444.03
2022-08-29T14:59:18.177Z,98436.38
2022-08-29T15:01:53.766Z,98443.25
2022-08-29T15:04:35.457Z,98445.38
2022-08-29T15:07:07.287Z,98432.78
2022-08-29T15:09:39.885Z,98438.59
2022-08-29T15:12:10.190Z,98436.78
2022-08-29T15:14:39.908Z,98449.47
2022-08-29T15:17:09.944Z,98440.84
2022-08-29T15:22:30.301Z,98433.97
2022-08-29T15:25:03.451Z,98431.75
2022-08-29T15:27:33.254Z,98443.06
2022-08-29T15:30:03.101Z,98426.53
2022-08-29T15:32:34.644Z,98425.66
2022-08-29T15:35:04.355Z,98423.72
2022-08-29T15:37:34.069Z,98422.19
2022-08-29T15:40:12.820Z,98419.25
2022-08-29T15:42:42.943Z,98416.81
2022-08-29T15:45:13.504Z,98413.25
2022-08-29T15:47:46.246Z,98410.22
2022-08-29T15:50:17.397Z,98410.03
2022-08-29T15:52:47.343Z,98407.53
2022-08-29T15:55:19.663Z,98404.28
2022-08-29T15:57:51.725Z,98408.06
2022-08-29T16:00:30.071Z,98405.25
2022-08-29T16:03:03.070Z,98403.13
2022-08-29T16:05:33.293Z,98400.72
2022-08-29T16:08:03.349Z,98404.16
2022-08-29T16:10:36.279Z,98409.63
2022-08-29T16:13:06.695Z,98406.41
2022-08-29T16:15:36.466Z,98406.13
2022-08-29T16:18:06.816Z,98400.53
2022-08-29T16:20:41.651Z,98389.00
2022-08-29T16:23:11.519Z,98393.06
2022-08-29T16:25:44.220Z,98389.34
2022-08-29T16:28:14.213Z,98391.38
2022-08-29T16:30:45.837Z,98382.50
2022-08-29T16:33:16.162Z,98382.50
2022-08-29T16:35:46.499Z,98389.97
2022-08-29T16:38:16.434Z,98386.41
2022-08-29T16:40:49.012Z,98384.69
2022-08-29T16:43:19.313Z,98380.34
2022-08-29T16:45:49.004Z,98385.94
2022-08-29T16:48:18.873Z,98383.16
2022-08-29T16:50:49.119Z,98379.41
2022-08-29T16:53:19.381Z,98380.22
2022-08-29T16:55:51.578Z,98374.44
2022-08-29T16:58:33.634Z,98382.72
2022-08-29T17:03:37.980Z,98377.00
2022-08-29T17:06:08.139Z,98375.13
2022-08-29T17:08:35.162Z,98371.25
2022-08-29T17:11:05.393Z,98379.66
2022-08-29T17:13:32.873Z,98379.78
2022-08-29T17:16:01.846Z,98372.53
2022-08-29T17:18:31.950Z,98379.22
2022-08-29T17:21:01.714Z,98383.13
2022-08-29T17:23:32.849Z,98375.78
2022-08-29T17:26:03.823Z,98383.13
2022-08-29T17:28:36.101Z,98382.50
2022-08-29T17:31:05.773Z,98386.41
2022-08-29T17:33:36.168Z,98387.50
2022-08-29T17:36:07.077Z,98382.84
2022-08-29T17:38:36.983Z,98390.59
2022-08-29T17:41:15.165Z,98390.78
2022-08-29T17:43:50.365Z,98389.69
2022-08-29T17:46:21.994Z,98392.94
2022-08-29T17:48:51.994Z,98389.63
2022-08-29T17:51:21.649Z,98396.91
2022-08-29T17:53:52.797Z,98389.19
2022-08-29T17:56:28.301Z,98396.00
2022-08-29T17:59:02.440Z,98397.19
2022-08-29T18:01:35.725Z,98402.94
2022-08-29T18:04:05.881Z,98403.25
2022-08-29T18:06:35.473Z,98413.44
2022-08-29T18:09:06.080Z,98410.94
2022-08-29T18:11:36.170Z,98410.78
2022-08-29T18:14:08.757Z,98410.16
2022-08-29T18:16:38.623Z,98421.59
2022-08-29T18:19:09.015Z,98416.50
2022-08-29T18:21:40.668Z,98424.88
2022-08-29T18:24:15.786Z,98421.75
2022-08-29T18:26:46.859Z,98433.00
2022-08-29T18:29:19.343Z,98427.53
2022-08-29T18:31:49.078Z,98428.91
2022-08-29T18:34:19.127Z,98433.53
2022-08-29T18:36:50.706Z,98428.06
2022-08-29T18:39:21.230Z,98434.25
2022-08-29T18:41:52.274Z,98437.75
2022-08-29T18:44:24.714Z,98433.09
2022-08-29T18:46:54.475Z,98438.34
2022-08-29T18:49:44.399Z,98443.94
2022-08-29T18:52:14.289Z,98444.22
2022-08-29T18:54:44.926Z,98449.44
2022-08-29T18:57:14.570Z,98453.47
2022-08-29T18:59:46.811Z,98450.47
2022-08-29T19:02:16.684Z,98447.19
2022-08-29T19:04:46.477Z,98443.03
2022-08-29T19:07:16.203Z,98458.22
2022-08-29T19:09:54.034Z,98458.22
2022-08-29T19:12:23.607Z,98461.72
2022-08-29T19:14:56.713Z,98468.97
2022-08-29T19:17:26.609Z,98464.50
2022-08-29T19:20:10.313Z,98474.78
2022-08-29T19:22:40.363Z,98478.47
2022-08-29T19:25:11.453Z,98474.38
2022-08-29T19:27:44.128Z,98465.16
2022-08-29T19:30:19.660Z,98469.75
2022-08-29T19:32:49.273Z,98468.19
2022-08-29T19:35:18.971Z,98468.75
2022-08-29T19:37:48.667Z,98465.97
2022-08-29T19:40:20.496Z,98471.34
2022-08-29T19:42:50.512Z,98471.13
2022-08-29T19:45:22.880Z,98474.00
2022-08-29T19:47:52.747Z,98470.66
2022-08-29T19:50:25.310Z,98484.34
2022-08-29T19:52:56.371Z,98477.13
2022-08-29T19:55:27.038Z,98485.81
2022-08-29T19:57:56.977Z,98483.94
2022-08-29T20:00:31.112Z,98491.47
2022-08-29T20:03:01.286Z,98492.84
2022-08-29T20:05:30.929Z,98486.38
2022-08-29T20:08:01.007Z,98482.47
2022-08-29T20:10:33.029Z,98501.16
2022-08-29T20:13:03.529Z,98496.19
2022-08-29T20:15:36.285Z,98488.34
2022-08-29T20:18:07.234Z,98505.81
2022-08-29T20:20:40.064Z,98503.72
2022-08-29T20:23:10.521Z,98506.72
2022-08-29T20:25:40.372Z,98502.72
2022-08-29T20:28:15.413Z,98508.28
2022-08-29T20:30:48.325Z,98499.38
2022-08-29T20:33:19.985Z,98512.19
2022-08-29T20:36:02.073Z,98506.50
2022-08-29T20:38:33.348Z,98509.75
2022-08-29T20:41:03.027Z,98509.41
2022-08-29T20:43:32.659Z,98506.47
2022-08-29T20:46:09.431Z,98513.97
2022-08-29T20:48:39.512Z,98516.16
2022-08-29T20:51:11.606Z,98520.16
2022-08-29T20:53:42.329Z,98514.63
2022-08-29T20:56:12.357Z,98513.72
2022-08-29T20:58:42.004Z,98523.50
2022-08-29T21:01:14.338Z,98517.72
2022-08-29T21:03:56.493Z,98516.06
2022-08-29T21:06:26.170Z,98520.28
2022-08-29T21:08:56.039Z,98516.84
2022-08-29T21:11:25.825Z,98521.94
2022-08-29T21:13:55.660Z,98530.50
2022-08-29T21:16:28.668Z,98524.06
2022-08-29T21:18:58.530Z,98519.50
2022-08-29T21:21:28.124Z,98525.06
2022-08-29T21:23:57.777Z,98528.28
2022-08-29T21:26:27.401Z,98529.72
2022-08-29T21:28:56.998Z,98535.50
2022-08-29T21:31:29.473Z,98535.63
2022-08-29T21:34:02.201Z,98532.94
2022-08-29T21:36:34.140Z,98537.09
2022-08-29T21:39:04.143Z,98541.19
2022-08-29T21:41:35.712Z,98546.16
2022-08-29T21:44:06.252Z,98541.56
2022-08-29T21:46:43.215Z,98543.13
2022-08-29T21:49:14.790Z,98536.63
2022-08-29T21:51:44.401Z,98535.19
2022-08-29T21:54:15.431Z,98536.78
2022-08-29T21:56:46.081Z,98537.03
2022-08-29T21:59:17.817Z,98537.56
2022-08-29T22:01:52.658Z,98542.72
2022-08-29T22:04:28.105Z,98534.78
2022-08-29T22:07:01.812Z,98532.38
2022-08-29T22:09:33.443Z,98531.50
2022-08-29T22:12:03.864Z,98530.53
2022-08-29T22:14:48.714Z,98535.31
2022-08-29T22:17:20.991Z,98526.81
2022-08-29T22:19:50.688Z,98532.88
2022-08-29T22:22:20.328Z,98519.50
2022-08-29T22:24:49.978Z,98523.47
2022-08-29T22:27:19.640Z,98526.53
2022-08-29T22:29:49.316Z,98520.97
2022-08-29T22:32:21.626Z,98528.53
2022-08-29T22:34:51.256Z,98526.53
2022-08-29T22:37:20.927Z,98535.66
2022-08-29T22:39:50.605Z,98536.19
2022-08-29T22:42:20.416Z,98539.06
2022-08-29T22:45:06.392Z,98530.03
2022-08-29T22:47:39.454Z,98536.56
2022-08-29T22:50:13.516Z,98534.44
2022-08-29T22:52:43.204Z,98539.38
2022-08-29T22:55:16.786Z,98537.81
2022-08-29T22:57:47.024Z,98544.13
2022-08-29T23:00:19.817Z,98542.13
2022-08-29T23:02:53.218Z,98531.81
2022-08-29T23:05:24.265Z,98531.09
2022-08-29T23:07:54.159Z,98531.47
2022-08-29T23:10:23.972Z,98529.81
2022-08-29T23:12:53.611Z,98528.22
2022-08-29T23:15:23.322Z,98531.63
2022-08-29T23:17:55.544Z,98525.28
2022-08-29T23:20:27.408Z,98530.84
2022-08-29T23:22:58.888Z,98528.50
2022-08-29T23:25:28.545Z,98526.94
2022-08-29T23:27:58.182Z,98535.53
2022-08-29T23:30:28.102Z,98529.19
2022-08-29T23:33:00.328Z,98537.66
2022-08-29T23:35:29.946Z,98532.72
2022-08-29T23:37:59.723Z,98530.38
2022-08-29T23:40:29.410Z,98538.28
2022-08-29T23:42:59.533Z,98539.22
2022-08-29T23:45:29.386Z,98538.78
2022-08-29T23:48:01.867Z,98540.94
2022-08-29T23:50:31.488Z,98545.97
2022-08-29T23:53:01.051Z,98544.06
2022-08-29T23:55:30.629Z,98529.50
2022-08-29T23:58:00.263Z,98528.69
